Time,TemperatureF,DewpointF,PressureIn,WindDirection,WindDirectionDegrees,WindSpeedMPH,WindSpeedGustMPH,Humidity,HourlyPrecipIn,Conditions,Clouds,dailyrainin,SolarRadiationWatts/m^2,SoftwareType,DateUTC
2013-06-05 00:01:00,80.1,78.4,30.06,SE,138,0.0,7.0,95,0.00,,,0.07,0.0,meteohub,2013-06-05 04:01:00,
2013-06-05 00:02:00,80.1,78.4,30.06,SE,140,0.0,7.0,95,0.00,,,0.07,0.0,meteohub,2013-06-05 04:02:00,
2013-06-05 00:03:00,80.1,78.4,30.06,SE,138,0.0,7.0,95,0.00,,,0.07,0.0,meteohub,2013-06-05 04:03:00,
2013-06-05 00:04:00,80.1,78.4,30.06,SE,138,0.0,7.0,95,0.00,,,0.07,0.0,meteohub,2013-06-05 04:04:00,
2013-06-05 00:09:00,80.1,78.3,30.06,SE,140,0.0,7.0,94,0.00,,,0.00,0.0,meteohub,2013-06-05 04:09:00,
2013-06-05 00:14:00,80.1,78.3,30.06,SE,124,0.0,7.0,94,0.00,,,0.00,0.0,meteohub,2013-06-05 04:14:00,
2013-06-05 00:19:00,80.1,78.3,30.06,SE,126,0.0,0.0,94,0.00,,,0.00,0.0,meteohub,2013-06-05 04:19:00,
2013-06-05 00:24:00,80.1,78.3,30.06,SE,126,0.0,0.0,94,0.00,,,0.00,0.0,meteohub,2013-06-05 04:24:00,
2013-06-05 00:29:00,80.1,78.3,30.05,SE,128,5.0,5.0,94,0.00,,,0.00,0.0,meteohub,2013-06-05 04:29:00,
2013-06-05 00:34:00,79.9,78.1,30.05,SE,128,0.0,3.0,94,0.00,,,0.00,0.0,meteohub,2013-06-05 04:34:00,
2013-06-05 00:39:00,79.9,78.1,30.05,SE,130,0.0,6.0,94,0.00,,,0.00,0.0,meteohub,2013-06-05 04:39:00,
2013-06-05 00:44:00,79.9,78.3,30.05,SE,130,0.0,6.0,95,0.00,,,0.00,0.0,meteohub,2013-06-05 04:44:00,
2013-06-05 00:49:00,79.9,78.3,30.05,SE,128,0.0,0.0,95,0.00,,,0.00,0.0,meteohub,2013-06-05 04:49:00,
2013-06-05 00:54:00,79.9,78.3,30.05,SE,133,0.0,0.0,95,0.00,,,0.00,0.0,meteohub,2013-06-05 04:54:00,
2013-06-05 00:59:00,79.9,78.3,30.04,SE,131,0.0,5.0,95,0.00,,,0.00,0.0,meteohub,2013-06-05 04:59:00,
2013-06-05 01:04:00,79.9,78.3,30.04,SE,136,0.0,5.0,95,0.00,,,0.00,0.0,meteohub,2013-06-05 05:04:00,
2013-06-05 01:09:00,79.9,78.3,30.04,SE,136,0.0,5.0,95,0.00,,,0.00,0.0,meteohub,2013-06-05 05:09:00,
2013-06-05 01:14:00,79.5,77.9,30.04,SE,134,0.0,4.0,95,0.00,,,0.00,0.0,meteohub,2013-06-05 05:14:00,
2013-06-05 01:19:00,79.5,77.9,30.04,SE,136,0.0,0.0,95,0.00,,,0.00,0.0,meteohub,2013-06-05 05:19:00,
2013-06-05 01:24:00,79.5,77.9,30.04,SE,134,0.0,0.0,95,0.00,,,0.00,0.0,meteohub,2013-06-05 05:24:00,
2013-06-05 01:29:00,79.5,77.9,30.04,SE,134,0.0,0.0,95,0.00,,,0.00,0.0,meteohub,2013-06-05 05:29:00,
2013-06-05 01:34:00,79.5,77.9,30.04,SE,134,0.0,0.0,95,0.00,,,0.00,0.0,meteohub,2013-06-05 05:34:00,
2013-06-05 01:39:00,79.5,77.9,30.04,SE,136,0.0,3.0,95,0.00,,,0.00,0.0,meteohub,2013-06-05 05:39:00,
2013-06-05 01:44:00,79.5,77.9,30.04,SE,137,0.0,3.0,95,0.00,,,0.00,0.0,meteohub,2013-06-05 05:44:00,
2013-06-05 01:49:00,79.5,77.9,30.04,SE,137,0.0,0.0,95,0.00,,,0.00,0.0,meteohub,2013-06-05 05:49:00,
2013-06-05 01:54:00,79.3,77.7,30.04,SE,137,0.0,0.0,95,0.00,,,0.00,0.0,meteohub,2013-06-05 05:54:00,
2013-06-05 01:59:00,79.3,77.7,30.04,SE,138,0.0,0.0,95,0.00,,,0.00,0.0,meteohub,2013-06-05 05:59:00,
2013-06-05 02:04:00,79.2,77.5,30.04,SE,137,0.0,0.0,95,0.00,,,0.00,0.0,meteohub,2013-06-05 06:04:00,
2013-06-05 02:09:00,79.2,77.5,30.04,SE,137,0.0,0.0,95,0.00,,,0.00,0.0,meteohub,2013-06-05 06:09:00,
2013-06-05 02:14:00,79.2,77.5,30.03,SE,137,0.0,0.0,95,0.00,,,0.00,0.0,meteohub,2013-06-05 06:14:00,
2013-06-05 02:19:00,79.2,77.5,30.03,SE,137,0.0,0.0,95,0.00,,,0.00,0.0,meteohub,2013-06-05 06:19:00,
2013-06-05 02:24:00,79.2,77.5,30.03,SE,137,0.0,0.0,95,0.00,,,0.00,0.0,meteohub,2013-06-05 06:24:00,
2013-06-05 02:29:00,79.2,77.5,30.03,SE,137,0.0,0.0,95,0.00,,,0.00,0.0,meteohub,2013-06-05 06:29:00,
2013-06-05 02:34:00,79.2,77.5,30.03,SE,137,0.0,0.0,95,0.00,,,0.00,0.0,meteohub,2013-06-05 06:34:00,
2013-06-05 02:39:00,79.2,77.5,30.03,SE,137,0.0,0.0,95,0.00,,,0.00,0.0,meteohub,2013-06-05 06:39:00,
2013-06-05 02:45:00,79.2,77.5,30.02,SE,137,0.0,0.0,95,0.00,,,0.00,0.0,meteohub,2013-06-05 06:45:00,
2013-06-05 02:49:00,79.2,77.5,30.02,SE,137,0.0,0.0,95,0.00,,,0.00,0.0,meteohub,2013-06-05 06:49:00,
2013-06-05 02:54:00,79.2,77.5,30.02,SE,138,0.0,0.0,95,0.00,,,0.00,0.0,meteohub,2013-06-05 06:54:00,
2013-06-05 02:59:00,79.0,77.4,30.03,SE,137,0.0,0.0,95,0.00,,,0.00,0.0,meteohub,2013-06-05 06:59:00,
2013-06-05 03:05:00,79.0,77.4,30.03,SE,131,0.0,0.0,95,0.00,,,0.00,0.0,meteohub,2013-06-05 07:05:00,
2013-06-05 03:10:00,79.2,77.9,30.03,SE,137,0.0,0.0,96,0.00,,,0.00,0.0,meteohub,2013-06-05 07:10:00,
2013-06-05 03:15:00,79.2,77.5,30.03,SE,136,0.0,0.0,95,0.00,,,0.00,0.0,meteohub,2013-06-05 07:15:00,
2013-06-05 03:20:00,79.2,77.5,30.03,SE,141,0.0,0.0,95,0.00,,,0.00,0.0,meteohub,2013-06-05 07:20:00,
2013-06-05 03:25:00,79.0,77.4,30.03,SE,141,0.0,1.0,95,0.00,,,0.00,0.0,meteohub,2013-06-05 07:25:00,
2013-06-05 03:30:00,79.0,77.7,30.02,SE,141,0.0,1.0,96,0.00,,,0.00,0.0,meteohub,2013-06-05 07:30:00,
2013-06-05 03:35:00,79.0,77.7,30.02,SE,143,0.0,0.0,96,0.00,,,0.00,0.0,meteohub,2013-06-05 07:35:00,
2013-06-05 03:40:00,79.0,77.7,30.02,SE,140,0.0,0.0,96,0.00,,,0.00,0.0,meteohub,2013-06-05 07:40:00,
2013-06-05 03:45:00,78.8,77.5,30.02,SE,140,0.0,0.0,96,0.00,,,0.00,0.0,meteohub,2013-06-05 07:45:00,
2013-06-05 03:50:00,78.8,77.5,30.02,SE,140,0.0,0.0,96,0.00,,,0.00,0.0,meteohub,2013-06-05 07:50:00,
2013-06-05 03:55:00,78.8,77.5,30.02,SE,141,0.0,0.0,96,0.00,,,0.00,0.0,meteohub,2013-06-05 07:55:00,
2013-06-05 04:00:00,78.8,77.5,30.02,SE,141,0.0,0.0,96,0.00,,,0.00,0.0,meteohub,2013-06-05 08:00:00,
2013-06-05 04:05:00,78.8,77.5,30.02,SE,140,0.0,0.0,96,0.00,,,0.00,0.0,meteohub,2013-06-05 08:05:00,
2013-06-05 04:10:00,78.8,77.5,30.02,SE,141,0.0,0.0,96,0.00,,,0.00,0.0,meteohub,2013-06-05 08:10:00,
2013-06-05 04:15:00,78.8,77.5,30.02,SE,141,0.0,0.0,96,0.00,,,0.00,0.0,meteohub,2013-06-05 08:15:00,
2013-06-05 04:20:00,78.8,77.9,30.02,SE,141,0.0,0.0,97,0.00,,,0.00,0.0,meteohub,2013-06-05 08:20:00,
2013-06-05 04:25:00,78.8,77.9,30.02,SE,141,0.0,0.0,97,0.00,,,0.00,0.0,meteohub,2013-06-05 08:25:00,
2013-06-05 04:30:00,78.8,77.9,30.02,SE,140,0.0,0.0,97,0.00,,,0.00,0.0,meteohub,2013-06-05 08:30:00,
2013-06-05 04:35:00,78.8,77.9,30.02,SE,143,0.0,0.0,97,0.00,,,0.00,0.0,meteohub,2013-06-05 08:35:00,
2013-06-05 04:40:00,78.8,77.9,30.02,SE,141,0.0,0.0,97,0.00,,,0.00,0.0,meteohub,2013-06-05 08:40:00,
2013-06-05 04:45:00,78.8,77.9,30.02,SE,141,0.0,0.0,97,0.00,,,0.00,0.0,meteohub,2013-06-05 08:45:00,
2013-06-05 04:50:00,78.8,77.9,30.02,SE,143,0.0,0.0,97,0.00,,,0.00,0.0,meteohub,2013-06-05 08:50:00,
2013-06-05 04:55:00,78.6,77.7,30.02,SE,143,0.0,0.0,97,0.00,,,0.00,0.0,meteohub,2013-06-05 08:55:00,
2013-06-05 05:00:00,78.6,77.7,30.02,SE,143,0.0,0.0,97,0.00,,,0.00,0.0,meteohub,2013-06-05 09:00:00,
2013-06-05 05:06:00,78.6,77.7,30.02,SE,141,0.0,0.0,97,0.00,,,0.00,0.0,meteohub,2013-06-05 09:06:00,
2013-06-05 05:11:00,78.4,77.5,30.02,SE,143,0.0,0.0,97,0.00,,,0.00,0.0,meteohub,2013-06-05 09:11:00,
2013-06-05 05:16:00,78.4,77.5,30.02,SE,143,0.0,0.0,97,0.00,,,0.00,0.0,meteohub,2013-06-05 09:16:00,
2013-06-05 05:21:00,78.4,77.5,30.02,SE,143,0.0,0.0,97,0.00,,,0.00,0.0,meteohub,2013-06-05 09:21:00,
2013-06-05 05:26:00,78.4,77.5,30.02,SE,137,0.0,0.0,97,0.00,,,0.00,0.0,meteohub,2013-06-05 09:26:00,
2013-06-05 05:34:00,78.4,77.5,30.02,SE,141,0.0,0.0,97,0.00,,,0.00,0.0,meteohub,2013-06-05 09:34:00,
2013-06-05 05:39:00,78.4,77.5,30.02,SE,141,0.0,0.0,97,0.00,,,0.00,0.0,meteohub,2013-06-05 09:39:00,
2013-06-05 05:44:00,78.4,77.5,30.03,SE,143,0.0,0.0,97,0.00,,,0.00,0.0,meteohub,2013-06-05 09:44:00,
2013-06-05 05:49:00,78.4,77.5,30.03,SE,141,0.0,0.0,97,0.00,,,0.00,0.0,meteohub,2013-06-05 09:49:00,
2013-06-05 05:54:00,78.4,77.5,30.03,SE,143,0.0,0.0,97,0.00,,,0.00,0.0,meteohub,2013-06-05 09:54:00,
2013-06-05 05:59:00,78.4,77.5,30.04,SE,141,0.0,0.0,97,0.00,,,0.00,5.0,meteohub,2013-06-05 09:59:00,
2013-06-05 06:04:00,78.4,77.5,30.04,SE,143,0.0,0.0,97,0.00,,,0.00,14.0,meteohub,2013-06-05 10:04:00,
2013-06-05 06:09:00,78.6,77.7,30.04,SE,141,0.0,0.0,97,0.00,,,0.00,19.0,meteohub,2013-06-05 10:09:00,
2013-06-05 06:14:00,78.6,77.7,30.04,SE,143,0.0,0.0,97,0.00,,,0.00,26.0,meteohub,2013-06-05 10:14:00,
2013-06-05 06:19:00,78.8,77.9,30.04,SE,143,0.0,0.0,97,0.00,,,0.00,33.0,meteohub,2013-06-05 10:19:00,
2013-06-05 06:24:00,78.8,77.9,30.04,SE,141,0.0,0.0,97,0.00,,,0.00,40.0,meteohub,2013-06-05 10:24:00,
2013-06-05 06:30:00,78.8,77.5,30.04,SE,143,0.0,0.0,96,0.00,,,0.00,55.0,meteohub,2013-06-05 10:30:00,
2013-06-05 06:35:00,79.0,77.7,30.04,SE,144,0.0,0.0,96,0.00,,,0.00,77.0,meteohub,2013-06-05 10:35:00,
2013-06-05 06:40:00,79.2,77.9,30.04,SE,143,0.0,0.0,96,0.00,,,0.00,97.0,meteohub,2013-06-05 10:40:00,
2013-06-05 06:45:00,79.3,78.1,30.05,SE,143,0.0,0.0,96,0.00,,,0.00,111.0,meteohub,2013-06-05 10:45:00,
2013-06-05 06:50:00,79.5,78.3,30.05,SE,141,0.0,0.0,96,0.00,,,0.00,114.0,meteohub,2013-06-05 10:50:00,
2013-06-05 06:55:00,79.9,78.3,30.05,SE,143,0.0,1.0,95,0.00,,,0.00,107.0,meteohub,2013-06-05 10:55:00,
2013-06-05 07:00:00,80.1,78.4,30.05,SE,141,0.0,1.0,95,0.00,,,0.00,104.0,meteohub,2013-06-05 11:00:00,
2013-06-05 07:05:00,80.1,78.4,30.05,SE,141,0.0,1.0,95,0.00,,,0.00,111.0,meteohub,2013-06-05 11:05:00,
2013-06-05 07:10:00,80.1,78.4,30.05,East,95,0.0,5.0,95,0.00,,,0.00,109.0,meteohub,2013-06-05 11:10:00,
2013-06-05 07:15:00,80.1,78.3,30.06,East,95,0.0,5.0,94,0.00,,,0.00,114.0,meteohub,2013-06-05 11:15:00,
2013-06-05 07:20:00,80.1,78.3,30.06,East,97,0.0,5.0,94,0.00,,,0.00,109.0,meteohub,2013-06-05 11:20:00,
2013-06-05 07:25:00,80.2,78.4,30.06,East,100,0.0,6.0,94,0.00,,,0.00,151.0,meteohub,2013-06-05 11:25:00,
2013-06-05 07:30:00,80.2,78.6,30.06,East,89,0.0,6.0,95,0.00,,,0.00,113.0,meteohub,2013-06-05 11:30:00,
2013-06-05 07:36:00,80.4,78.6,30.06,East,100,0.0,6.0,94,0.00,,,0.00,121.0,meteohub,2013-06-05 11:36:00,
2013-06-05 07:41:00,80.8,78.8,30.06,ESE,113,0.0,5.0,94,0.00,,,0.00,130.0,meteohub,2013-06-05 11:41:00,
2013-06-05 07:46:00,80.8,78.8,30.07,ESE,107,0.0,5.0,94,0.00,,,0.00,137.0,meteohub,2013-06-05 11:46:00,
2013-06-05 07:51:00,81.0,79.0,30.07,East,80,0.0,5.0,94,0.00,,,0.00,144.0,meteohub,2013-06-05 11:51:00,
2013-06-05 07:56:00,81.1,79.2,30.07,ESE,103,4.0,7.0,94,0.00,,,0.00,148.0,meteohub,2013-06-05 11:56:00,
2013-06-05 08:01:00,81.1,79.2,30.07,ESE,119,0.0,7.0,94,0.00,,,0.00,150.0,meteohub,2013-06-05 12:01:00,
2013-06-05 08:06:00,81.3,79.2,30.07,East,90,0.0,7.0,93,0.00,,,0.00,157.0,meteohub,2013-06-05 12:06:00,
2013-06-05 08:11:00,81.7,79.5,30.07,East,97,0.0,7.0,93,0.00,,,0.00,158.0,meteohub,2013-06-05 12:11:00,
2013-06-05 08:16:00,81.9,79.3,30.07,SSE,151,7.0,7.0,92,0.00,,,0.00,155.0,meteohub,2013-06-05 12:16:00,
2013-06-05 08:22:00,81.9,79.3,30.07,ESE,104,5.0,11.0,92,0.00,,,0.00,167.0,meteohub,2013-06-05 12:22:00,
2013-06-05 08:27:00,82.0,79.2,30.07,East,92,5.0,11.0,91,0.00,,,0.00,171.0,meteohub,2013-06-05 12:27:00,
2013-06-05 08:32:00,82.2,79.3,30.07,SE,145,0.0,11.0,91,0.00,,,0.00,178.0,meteohub,2013-06-05 12:32:00,
2013-06-05 08:37:00,82.4,79.5,30.07,SSE,150,7.0,10.0,91,0.00,,,0.00,188.0,meteohub,2013-06-05 12:37:00,
2013-06-05 08:42:00,82.4,79.5,30.07,SE,140,0.0,10.0,91,0.00,,,0.00,153.0,meteohub,2013-06-05 12:42:00,
2013-06-05 08:47:00,82.4,79.2,30.07,ESE,117,8.0,10.0,90,0.00,,,0.00,185.0,meteohub,2013-06-05 12:47:00,
2013-06-05 08:52:00,82.6,79.3,30.07,ESE,106,0.0,11.0,90,0.00,,,0.00,195.0,meteohub,2013-06-05 12:52:00,
2013-06-05 08:57:00,82.8,79.5,30.07,SE,137,5.0,11.0,90,0.00,,,0.00,264.0,meteohub,2013-06-05 12:57:00,
2013-06-05 09:02:00,83.1,79.9,30.07,SE,127,0.0,11.0,90,0.00,,,0.00,179.0,meteohub,2013-06-05 13:02:00,
2013-06-05 09:07:00,83.5,79.9,30.07,East,95,0.0,8.0,89,0.00,,,0.00,255.0,meteohub,2013-06-05 13:07:00,
2013-06-05 09:12:00,83.7,80.1,30.07,East,97,0.0,8.0,89,0.00,,,0.00,273.0,meteohub,2013-06-05 13:12:00,
2013-06-05 09:17:00,84.0,80.1,30.07,SE,134,5.0,7.0,88,0.00,,,0.00,419.0,meteohub,2013-06-05 13:17:00,
2013-06-05 09:22:00,84.4,80.1,30.07,ESE,116,5.0,10.0,87,0.00,,,0.00,392.0,meteohub,2013-06-05 13:22:00,
2013-06-05 09:27:00,84.6,79.9,30.06,ESE,119,6.0,10.0,86,0.00,,,0.00,473.0,meteohub,2013-06-05 13:27:00,
2013-06-05 09:33:00,84.7,79.7,30.06,ESE,116,0.0,10.0,85,0.00,,,0.00,366.0,meteohub,2013-06-05 13:33:00,
2013-06-05 09:38:00,85.3,80.2,30.06,SE,127,2.0,10.0,85,0.00,,,0.00,331.0,meteohub,2013-06-05 13:38:00,
2013-06-05 09:43:00,85.3,80.2,30.06,ENE,75,5.0,10.0,85,0.00,,,0.00,345.0,meteohub,2013-06-05 13:43:00,
2013-06-05 09:48:00,85.5,80.4,30.06,East,88,5.0,8.0,85,0.00,,,0.00,317.0,meteohub,2013-06-05 13:48:00,
2013-06-05 09:53:00,85.5,80.4,30.06,East,85,10.0,10.0,85,0.00,,,0.00,403.0,meteohub,2013-06-05 13:53:00,
2013-06-05 09:58:00,85.6,80.6,30.06,East,95,8.0,13.0,85,0.00,,,0.00,852.0,meteohub,2013-06-05 13:58:00,
2013-06-05 10:03:00,86.4,81.0,30.06,East,88,2.0,13.0,84,0.00,,,0.00,744.0,meteohub,2013-06-05 14:03:00,
2013-06-05 10:08:00,86.7,81.0,30.06,East,86,7.0,13.0,83,0.00,,,0.00,931.0,meteohub,2013-06-05 14:08:00,
2013-06-05 10:13:00,87.3,81.5,30.05,NE,44,0.0,12.0,83,0.00,,,0.00,338.0,meteohub,2013-06-05 14:13:00,
2013-06-05 10:18:00,87.3,81.1,30.05,East,88,5.0,12.0,82,0.00,,,0.00,952.0,meteohub,2013-06-05 14:18:00,
2013-06-05 10:23:00,87.1,81.3,30.05,ENE,72,5.0,14.0,83,0.00,,,0.00,267.0,meteohub,2013-06-05 14:23:00,
2013-06-05 10:28:00,86.4,81.0,30.05,ENE,65,12.0,14.0,84,0.00,,,0.00,296.0,meteohub,2013-06-05 14:28:00,
2013-06-05 10:33:00,86.4,81.0,30.05,ENE,71,0.0,14.0,84,0.00,,,0.00,491.0,meteohub,2013-06-05 14:33:00,
2013-06-05 10:38:00,86.7,81.3,30.05,ENE,68,10.0,15.0,84,0.00,,,0.00,491.0,meteohub,2013-06-05 14:38:00,
2013-06-05 10:43:00,87.4,81.7,30.05,East,92,9.0,16.0,83,0.00,,,0.00,1013.0,meteohub,2013-06-05 14:43:00,
2013-06-05 10:48:00,88.0,81.3,30.05,East,97,0.0,16.0,81,0.00,,,0.00,1021.0,meteohub,2013-06-05 14:48:00,
2013-06-05 10:54:00,88.5,81.9,30.05,ENE,59,11.0,16.0,81,0.00,,,0.00,333.0,meteohub,2013-06-05 14:54:00,
2013-06-05 10:58:00,88.2,81.5,30.05,ESE,103,7.0,13.0,81,0.00,,,0.00,639.0,meteohub,2013-06-05 14:58:00,
2013-06-05 11:03:00,87.6,81.1,30.05,East,93,7.0,13.0,81,0.00,,,0.00,354.0,meteohub,2013-06-05 15:03:00,
2013-06-05 11:09:00,87.6,81.1,30.05,ENE,73,0.0,14.0,81,0.00,,,0.00,494.0,meteohub,2013-06-05 15:09:00,
2013-06-05 11:14:00,87.4,81.0,30.05,ESE,110,8.0,14.0,81,0.00,,,0.00,477.0,meteohub,2013-06-05 15:14:00,
2013-06-05 11:19:00,87.6,81.1,30.05,NE,37,8.0,14.0,81,0.00,,,0.00,602.0,meteohub,2013-06-05 15:19:00,
2013-06-05 11:24:00,87.4,81.3,30.05,NE,47,13.0,14.0,82,0.00,,,0.00,227.0,meteohub,2013-06-05 15:24:00,
2013-06-05 11:29:00,86.7,81.0,30.05,East,97,7.0,14.0,83,0.00,,,0.00,234.0,meteohub,2013-06-05 15:29:00,
2013-06-05 11:34:00,86.2,80.8,30.05,East,100,7.0,21.0,84,0.00,,,0.00,234.0,meteohub,2013-06-05 15:34:00,
2013-06-05 11:39:00,85.6,80.2,30.05,SE,130,6.0,21.0,84,0.00,,,0.00,269.0,meteohub,2013-06-05 15:39:00,
2013-06-05 11:44:00,85.5,79.7,30.05,South,172,3.0,21.0,83,0.00,,,0.00,209.0,meteohub,2013-06-05 15:44:00,
2013-06-05 11:49:00,85.3,79.9,30.05,SSE,155,0.0,17.0,84,0.00,,,0.00,401.0,meteohub,2013-06-05 15:49:00,
2013-06-05 11:54:00,85.1,80.1,30.05,WSW,246,0.0,14.0,85,0.00,,,0.00,269.0,meteohub,2013-06-05 15:54:00,
2013-06-05 11:59:00,84.6,79.9,30.05,SW,215,8.0,14.0,86,0.00,,,0.00,153.0,meteohub,2013-06-05 15:59:00,
2013-06-05 12:04:00,83.8,79.5,30.05,South,175,9.0,10.0,87,0.00,,,0.00,84.0,meteohub,2013-06-05 16:04:00,
2013-06-05 12:09:00,82.9,78.6,30.05,South,174,6.0,12.0,87,0.00,,,0.00,160.0,meteohub,2013-06-05 16:09:00,
2013-06-05 12:14:00,82.6,78.6,30.05,South,185,0.0,12.0,88,0.00,,,0.00,176.0,meteohub,2013-06-05 16:14:00,
2013-06-05 12:19:00,82.6,79.0,30.05,SSE,164,3.0,12.0,89,0.00,,,0.00,253.0,meteohub,2013-06-05 16:19:00,
2013-06-05 12:24:00,82.8,79.9,30.05,South,176,3.0,11.0,91,0.00,,,0.00,331.0,meteohub,2013-06-05 16:24:00,
2013-06-05 12:29:00,83.1,80.2,30.04,SSE,157,0.0,11.0,91,0.00,,,0.00,225.0,meteohub,2013-06-05 16:29:00,
2013-06-05 12:34:00,83.7,80.8,30.04,ESE,106,0.0,11.0,91,0.00,,,0.00,269.0,meteohub,2013-06-05 16:34:00,
2013-06-05 12:39:00,84.7,81.5,30.04,ESE,116,5.0,11.0,90,0.00,,,0.00,269.0,meteohub,2013-06-05 16:39:00,
2013-06-05 12:44:00,85.5,81.5,30.03,SE,128,6.0,10.0,88,0.00,,,0.00,366.0,meteohub,2013-06-05 16:44:00,
2013-06-05 12:49:00,85.8,81.5,30.03,ESE,117,1.0,10.0,87,0.00,,,0.00,447.0,meteohub,2013-06-05 16:49:00,
2013-06-05 12:54:00,86.2,81.9,30.03,South,179,0.0,12.0,87,0.00,,,0.00,297.0,meteohub,2013-06-05 16:54:00,
2013-06-05 12:59:00,85.5,81.1,30.02,South,178,0.0,12.0,87,0.00,,,0.00,181.0,meteohub,2013-06-05 16:59:00,
2013-06-05 13:05:00,85.3,81.0,30.02,South,178,0.0,11.0,87,0.00,,,0.00,141.0,meteohub,2013-06-05 17:05:00,
2013-06-05 13:10:00,85.3,81.0,30.02,South,179,4.0,8.0,87,0.00,,,0.00,84.0,meteohub,2013-06-05 17:10:00,
2013-06-05 13:15:00,85.3,81.7,30.01,South,191,4.0,4.0,89,0.00,,,0.00,121.0,meteohub,2013-06-05 17:15:00,
2013-06-05 13:20:00,84.4,81.1,30.01,South,191,0.0,10.0,90,0.01,,,0.00,123.0,meteohub,2013-06-05 17:20:00,
2013-06-05 13:25:00,83.7,81.1,30.01,South,175,2.0,10.0,92,0.01,,,0.01,130.0,meteohub,2013-06-05 17:25:00,
2013-06-05 13:30:00,82.9,80.8,30.01,South,172,0.0,10.0,93,0.01,,,0.01,157.0,meteohub,2013-06-05 17:30:00,
2013-06-05 13:35:00,82.8,80.8,30.01,South,175,0.0,9.0,94,0.01,,,0.01,155.0,meteohub,2013-06-05 17:35:00,
2013-06-05 13:40:00,82.8,80.8,30.01,SSE,168,0.0,6.0,94,0.01,,,0.01,102.0,meteohub,2013-06-05 17:40:00,
2013-06-05 13:45:00,82.8,80.8,29.99,SSE,168,0.0,6.0,94,0.01,,,0.01,104.0,meteohub,2013-06-05 17:45:00,
2013-06-05 13:50:00,82.9,81.7,29.99,SSE,168,0.0,0.0,96,0.01,,,0.01,114.0,meteohub,2013-06-05 17:50:00,
2013-06-05 13:55:00,82.9,81.3,29.99,SE,131,7.0,0.0,95,0.01,,,0.01,155.0,meteohub,2013-06-05 17:55:00,
2013-06-05 14:00:00,82.8,80.6,29.99,SE,128,10.0,12.0,93,0.01,,,0.01,174.0,meteohub,2013-06-05 18:00:00,
2013-06-05 14:05:00,83.7,80.4,29.99,ESE,109,3.0,12.0,90,0.01,,,0.01,127.0,meteohub,2013-06-05 18:05:00,
2013-06-05 14:10:00,84.6,80.2,29.99,ESE,123,0.0,12.0,87,0.01,,,0.01,120.0,meteohub,2013-06-05 18:10:00,
2013-06-05 14:15:00,84.7,79.3,29.99,SE,138,6.0,12.0,84,0.01,,,0.01,113.0,meteohub,2013-06-05 18:15:00,
2013-06-05 14:20:00,85.1,79.0,29.99,East,80,3.0,12.0,82,0.00,,,0.01,160.0,meteohub,2013-06-05 18:20:00,
2013-06-05 14:26:00,85.6,79.5,29.99,SSE,161,3.0,12.0,82,0.00,,,0.01,134.0,meteohub,2013-06-05 18:26:00,
2013-06-05 14:31:00,85.3,79.9,29.98,South,169,0.0,11.0,84,0.00,,,0.01,187.0,meteohub,2013-06-05 18:31:00,
2013-06-05 14:36:00,85.1,80.1,29.98,SSE,155,0.0,9.0,85,0.00,,,0.01,304.0,meteohub,2013-06-05 18:36:00,
2013-06-05 14:41:00,85.3,79.5,29.98,East,79,4.0,6.0,83,0.00,,,0.01,248.0,meteohub,2013-06-05 18:41:00,
2013-06-05 14:46:00,86.2,79.3,29.98,SE,136,5.0,12.0,80,0.00,,,0.01,243.0,meteohub,2013-06-05 18:46:00,
2013-06-05 14:51:00,86.5,78.8,29.98,SE,126,2.0,12.0,78,0.00,,,0.01,292.0,meteohub,2013-06-05 18:51:00,
2013-06-05 14:56:00,86.7,79.0,29.98,SSE,161,5.0,12.0,78,0.00,,,0.01,183.0,meteohub,2013-06-05 18:56:00,
2013-06-05 15:01:00,86.5,79.7,29.98,South,171,0.0,12.0,80,0.00,,,0.01,201.0,meteohub,2013-06-05 19:01:00,
2013-06-05 15:07:00,86.4,79.9,29.98,SSE,148,6.0,11.0,81,0.00,,,0.01,204.0,meteohub,2013-06-05 19:07:00,
2013-06-05 15:12:00,86.4,79.5,29.98,SE,140,8.0,10.0,80,0.00,,,0.01,236.0,meteohub,2013-06-05 19:12:00,
2013-06-05 15:17:00,86.5,80.1,29.98,SSE,151,0.0,10.0,81,0.00,,,0.01,274.0,meteohub,2013-06-05 19:17:00,
2013-06-05 15:22:00,86.7,80.6,29.98,SE,131,2.0,10.0,82,0.00,,,0.01,234.0,meteohub,2013-06-05 19:22:00,
2013-06-05 15:27:00,86.5,80.1,29.98,SSE,158,0.0,10.0,81,0.00,,,0.01,165.0,meteohub,2013-06-05 19:27:00,
2013-06-05 15:32:00,86.2,79.7,29.98,SSE,154,5.0,8.0,81,0.00,,,0.01,211.0,meteohub,2013-06-05 19:32:00,
2013-06-05 15:37:00,85.8,79.7,29.98,SSW,199,0.0,8.0,82,0.00,,,0.01,194.0,meteohub,2013-06-05 19:37:00,
2013-06-05 15:42:00,86.2,80.1,29.98,South,176,8.0,11.0,82,0.00,,,0.01,377.0,meteohub,2013-06-05 19:42:00,
2013-06-05 15:47:00,86.2,79.7,29.97,South,181,4.0,11.0,81,0.00,,,0.01,377.0,meteohub,2013-06-05 19:47:00,
2013-06-05 15:52:00,86.5,79.7,29.97,South,188,7.0,14.0,80,0.00,,,0.01,347.0,meteohub,2013-06-05 19:52:00,
2013-06-05 15:57:00,86.7,79.3,29.96,SSE,165,1.0,14.0,79,0.00,,,0.01,311.0,meteohub,2013-06-05 19:57:00,
2013-06-05 16:02:00,87.4,79.7,29.96,South,186,5.0,12.0,78,0.00,,,0.01,611.0,meteohub,2013-06-05 20:02:00,
2013-06-05 16:07:00,87.4,79.7,29.96,SSW,209,2.0,10.0,78,0.00,,,0.01,253.0,meteohub,2013-06-05 20:07:00,
2013-06-05 16:12:00,87.3,79.5,29.96,South,169,3.0,10.0,78,0.00,,,0.01,234.0,meteohub,2013-06-05 20:12:00,
2013-06-05 16:17:00,87.1,79.7,29.96,South,175,8.0,11.0,79,0.00,,,0.01,327.0,meteohub,2013-06-05 20:17:00,
2013-06-05 16:22:00,87.1,79.3,29.96,SSE,152,6.0,12.0,78,0.00,,,0.01,399.0,meteohub,2013-06-05 20:22:00,
2013-06-05 16:27:00,87.4,79.7,29.96,SE,136,1.0,13.0,78,0.00,,,0.01,304.0,meteohub,2013-06-05 20:27:00,
2013-06-05 16:32:00,87.6,79.9,29.96,SSE,147,5.0,13.0,78,0.00,,,0.01,340.0,meteohub,2013-06-05 20:32:00,
2013-06-05 16:38:00,87.4,79.7,29.96,SSE,155,3.0,11.0,78,0.00,,,0.01,431.0,meteohub,2013-06-05 20:38:00,
2013-06-05 16:43:00,87.4,79.7,29.96,SSE,167,5.0,13.0,78,0.00,,,0.01,417.0,meteohub,2013-06-05 20:43:00,
2013-06-05 16:48:00,87.6,79.5,29.96,SSE,154,7.0,13.0,77,0.00,,,0.01,398.0,meteohub,2013-06-05 20:48:00,
2013-06-05 16:53:00,87.6,79.5,29.96,South,188,2.0,13.0,77,0.00,,,0.01,343.0,meteohub,2013-06-05 20:53:00,
2013-06-05 16:58:00,87.4,79.3,29.96,SSE,154,10.0,13.0,77,0.00,,,0.01,331.0,meteohub,2013-06-05 20:58:00,
2013-06-05 17:03:00,87.4,79.7,29.96,SSE,150,4.0,13.0,78,0.00,,,0.01,308.0,meteohub,2013-06-05 21:03:00,
2013-06-05 17:08:00,87.3,79.5,29.96,South,178,6.0,13.0,78,0.00,,,0.01,194.0,meteohub,2013-06-05 21:08:00,
2013-06-05 17:13:00,86.7,79.0,29.96,SE,145,2.0,13.0,78,0.00,,,0.01,167.0,meteohub,2013-06-05 21:13:00,
2013-06-05 17:18:00,86.4,78.6,29.96,South,174,6.0,9.0,78,0.00,,,0.01,165.0,meteohub,2013-06-05 21:18:00,
2013-06-05 17:23:00,86.2,78.4,29.96,SSW,192,5.0,12.0,78,0.00,,,0.01,245.0,meteohub,2013-06-05 21:23:00,
2013-06-05 17:28:00,85.8,78.6,29.96,South,184,2.0,12.0,79,0.00,,,0.01,185.0,meteohub,2013-06-05 21:28:00,
2013-06-05 17:33:00,85.8,78.1,29.96,SE,137,7.0,12.0,78,0.00,,,0.01,91.0,meteohub,2013-06-05 21:33:00,
2013-06-05 17:38:00,85.6,77.5,29.96,SSE,152,5.0,11.0,77,0.00,,,0.01,74.0,meteohub,2013-06-05 21:38:00,
2013-06-05 17:43:00,85.5,77.7,29.96,ESE,117,2.0,11.0,78,0.00,,,0.01,53.0,meteohub,2013-06-05 21:43:00,
2013-06-05 17:48:00,85.5,78.6,29.96,SSE,150,6.0,11.0,80,0.00,,,0.01,42.0,meteohub,2013-06-05 21:48:00,
2013-06-05 17:53:00,85.3,78.8,29.96,SE,128,0.0,12.0,81,0.00,,,0.01,33.0,meteohub,2013-06-05 21:53:00,
2013-06-05 17:58:00,85.3,78.8,29.96,SSE,148,3.0,12.0,81,0.00,,,0.01,32.0,meteohub,2013-06-05 21:58:00,
2013-06-05 18:03:00,84.9,78.8,29.96,ESE,103,0.0,12.0,82,0.00,,,0.01,26.0,meteohub,2013-06-05 22:03:00,
2013-06-05 18:08:00,84.9,78.8,29.96,ESE,104,3.0,8.0,82,0.00,,,0.01,30.0,meteohub,2013-06-05 22:08:00,
2013-06-05 18:13:00,84.6,78.8,29.97,SE,140,8.0,10.0,83,0.00,,,0.01,32.0,meteohub,2013-06-05 22:13:00,
2013-06-05 18:18:00,84.4,78.6,29.97,East,93,6.0,10.0,83,0.00,,,0.01,32.0,meteohub,2013-06-05 22:18:00,
2013-06-05 18:23:00,84.0,78.6,29.97,East,82,4.0,13.0,84,0.00,,,0.01,28.0,meteohub,2013-06-05 22:23:00,
2013-06-05 18:29:00,84.0,78.6,29.97,East,79,6.0,13.0,84,0.00,,,0.01,23.0,meteohub,2013-06-05 22:29:00,
2013-06-05 18:34:00,84.0,78.6,29.97,East,92,6.0,8.0,84,0.00,,,0.01,21.0,meteohub,2013-06-05 22:34:00,
2013-06-05 18:39:00,83.8,78.8,29.97,SE,128,0.0,14.0,85,0.00,,,0.01,14.0,meteohub,2013-06-05 22:39:00,
2013-06-05 18:44:00,83.7,78.6,29.98,ESE,112,1.0,14.0,85,0.00,,,0.01,11.0,meteohub,2013-06-05 22:44:00,
2013-06-05 18:49:00,83.7,78.6,29.98,ESE,120,6.0,14.0,85,0.00,,,0.01,0.0,meteohub,2013-06-05 22:49:00,
2013-06-05 18:54:00,83.1,78.1,29.98,East,95,1.0,11.0,85,0.00,,,0.01,0.0,meteohub,2013-06-05 22:54:00,
2013-06-05 18:59:00,82.9,77.9,29.98,East,95,5.0,13.0,85,0.00,,,0.01,0.0,meteohub,2013-06-05 22:59:00,
2013-06-05 19:04:00,82.8,77.7,29.98,East,93,6.0,13.0,85,0.00,,,0.01,0.0,meteohub,2013-06-05 23:04:00,
2013-06-05 19:09:00,82.8,77.7,29.98,East,95,3.0,13.0,85,0.00,,,0.01,0.0,meteohub,2013-06-05 23:09:00,
2013-06-05 19:14:00,82.6,77.5,29.99,ESE,116,6.0,11.0,85,0.00,,,0.01,0.0,meteohub,2013-06-05 23:14:00,
2013-06-05 19:19:00,82.6,77.5,29.99,ESE,112,6.0,11.0,85,0.00,,,0.01,0.0,meteohub,2013-06-05 23:19:00,
2013-06-05 19:24:00,82.4,77.7,29.99,ESE,119,8.0,12.0,86,0.00,,,0.01,0.0,meteohub,2013-06-05 23:24:00,
2013-06-05 19:29:00,82.4,77.7,29.99,SSE,147,7.0,12.0,86,0.00,,,0.01,0.0,meteohub,2013-06-05 23:29:00,
2013-06-05 19:34:00,82.4,77.7,29.99,East,89,3.0,11.0,86,0.00,,,0.01,0.0,meteohub,2013-06-05 23:34:00,
2013-06-05 19:39:00,82.4,77.7,29.99,SE,133,5.0,12.0,86,0.00,,,0.01,0.0,meteohub,2013-06-05 23:39:00,
2013-06-05 19:44:00,82.2,77.5,29.99,SE,137,8.0,12.0,86,0.00,,,0.01,0.0,meteohub,2013-06-05 23:44:00,
2013-06-05 19:49:00,82.2,77.5,29.99,East,100,3.0,10.0,86,0.00,,,0.01,0.0,meteohub,2013-06-05 23:49:00,
2013-06-05 19:54:00,82.2,77.9,29.99,SE,128,2.0,11.0,87,0.00,,,0.01,0.0,meteohub,2013-06-05 23:54:00,
2013-06-05 20:00:00,82.2,77.9,30.00,East,88,0.0,11.0,87,0.00,,,0.01,0.0,meteohub,2013-06-06 00:00:00,
2013-06-05 20:04:00,82.0,78.1,30.00,ESE,112,3.0,10.0,88,0.00,,,0.01,0.0,meteohub,2013-06-06 00:04:00,
2013-06-05 20:09:00,81.9,77.9,30.00,SE,128,6.0,8.0,88,0.00,,,0.01,0.0,meteohub,2013-06-06 00:09:00,
2013-06-05 20:14:00,81.7,77.7,30.01,ESE,102,0.0,7.0,88,0.00,,,0.01,0.0,meteohub,2013-06-06 00:14:00,
2013-06-05 20:20:00,81.7,77.7,30.01,ESE,116,0.0,9.0,88,0.00,,,0.01,0.0,meteohub,2013-06-06 00:20:00,
2013-06-05 20:25:00,81.3,77.7,30.01,SE,124,2.0,9.0,89,0.00,,,0.01,0.0,meteohub,2013-06-06 00:25:00,
2013-06-05 20:30:00,81.3,77.7,30.01,SE,126,4.0,8.0,89,0.00,,,0.01,0.0,meteohub,2013-06-06 00:30:00,
2013-06-05 20:35:00,81.3,77.7,30.01,East,99,6.0,12.0,89,0.00,,,0.01,0.0,meteohub,2013-06-06 00:35:00,
2013-06-05 20:40:00,81.3,77.7,30.01,East,85,0.0,12.0,89,0.00,,,0.01,0.0,meteohub,2013-06-06 00:40:00,
2013-06-05 20:45:00,81.3,77.7,30.01,East,89,0.0,12.0,89,0.00,,,0.01,0.0,meteohub,2013-06-06 00:45:00,
2013-06-05 20:50:00,81.3,77.7,30.01,East,97,0.0,11.0,89,0.00,,,0.01,0.0,meteohub,2013-06-06 00:50:00,
2013-06-05 20:55:00,81.3,77.7,30.01,ESE,106,0.0,8.0,89,0.00,,,0.01,0.0,meteohub,2013-06-06 00:55:00,
2013-06-05 21:00:00,81.1,77.5,30.02,East,100,0.0,8.0,89,0.00,,,0.01,0.0,meteohub,2013-06-06 01:00:00,
2013-06-05 21:05:00,81.1,77.5,30.02,SE,126,6.0,7.0,89,0.00,,,0.01,0.0,meteohub,2013-06-06 01:05:00,
2013-06-05 21:10:00,81.1,77.9,30.02,NE,49,0.0,7.0,90,0.00,,,0.01,0.0,meteohub,2013-06-06 01:10:00,
2013-06-05 21:15:00,81.1,77.9,30.02,ENE,75,3.0,7.0,90,0.00,,,0.01,0.0,meteohub,2013-06-06 01:15:00,
2013-06-05 21:20:00,81.1,78.3,30.02,NE,52,6.0,7.0,91,0.00,,,0.01,0.0,meteohub,2013-06-06 01:20:00,
2013-06-05 21:25:00,81.1,78.3,30.02,ENE,72,0.0,7.0,91,0.00,,,0.01,0.0,meteohub,2013-06-06 01:25:00,
2013-06-05 21:30:00,81.1,78.6,30.02,NE,49,0.0,7.0,92,0.00,,,0.01,0.0,meteohub,2013-06-06 01:30:00,
2013-06-05 21:35:00,81.1,78.6,30.02,ENE,61,6.0,7.0,92,0.00,,,0.01,0.0,meteohub,2013-06-06 01:35:00,
2013-06-05 21:40:00,81.0,78.4,30.02,ENE,65,0.0,8.0,92,0.00,,,0.01,0.0,meteohub,2013-06-06 01:40:00,
2013-06-05 21:45:00,80.8,78.6,30.02,ENE,71,0.0,8.0,93,0.00,,,0.01,0.0,meteohub,2013-06-06 01:45:00,
2013-06-05 21:51:00,80.8,78.6,30.02,East,97,0.0,7.0,93,0.00,,,0.01,0.0,meteohub,2013-06-06 01:51:00,
2013-06-05 21:56:00,80.4,78.3,30.02,East,88,0.0,8.0,93,0.00,,,0.01,0.0,meteohub,2013-06-06 01:56:00,
2013-06-05 22:01:00,80.4,77.9,30.03,ENE,76,0.0,8.0,92,0.00,,,0.01,0.0,meteohub,2013-06-06 02:01:00,
2013-06-05 22:06:00,80.4,78.3,30.03,East,92,0.0,6.0,93,0.00,,,0.01,0.0,meteohub,2013-06-06 02:06:00,
2013-06-05 22:11:00,80.4,78.3,30.03,East,92,0.0,7.0,93,0.00,,,0.01,0.0,meteohub,2013-06-06 02:11:00,
2013-06-05 22:16:00,80.8,78.6,30.03,East,95,0.0,7.0,93,0.00,,,0.01,0.0,meteohub,2013-06-06 02:16:00,
2013-06-05 22:21:00,80.8,78.6,30.03,ENE,65,0.0,7.0,93,0.00,,,0.01,0.0,meteohub,2013-06-06 02:21:00,
2013-06-05 22:26:00,80.8,78.8,30.03,ENE,66,0.0,9.0,94,0.00,,,0.01,0.0,meteohub,2013-06-06 02:26:00,
2013-06-05 22:31:00,80.4,78.6,30.04,ENE,78,0.0,9.0,94,0.00,,,0.01,0.0,meteohub,2013-06-06 02:31:00,
2013-06-05 22:36:00,80.4,78.6,30.04,East,82,0.0,7.0,94,0.00,,,0.01,0.0,meteohub,2013-06-06 02:36:00,
2013-06-05 22:41:00,80.4,78.6,30.04,ESE,112,0.0,2.0,94,0.00,,,0.01,0.0,meteohub,2013-06-06 02:41:00,
2013-06-05 22:46:00,80.2,78.4,30.04,East,99,0.0,5.0,94,0.00,,,0.01,0.0,meteohub,2013-06-06 02:46:00,
2013-06-05 22:51:00,80.2,78.4,30.04,ESE,120,0.0,5.0,94,0.00,,,0.01,0.0,meteohub,2013-06-06 02:51:00,
2013-06-05 22:56:00,80.1,78.3,30.04,SE,133,0.0,6.0,94,0.00,,,0.01,0.0,meteohub,2013-06-06 02:56:00,
2013-06-05 23:01:00,80.1,78.3,30.04,ESE,103,0.0,6.0,94,0.00,,,0.01,0.0,meteohub,2013-06-06 03:01:00,
2013-06-05 23:07:00,80.1,78.3,30.04,ESE,103,0.0,6.0,94,0.00,,,0.01,0.0,meteohub,2013-06-06 03:07:00,
2013-06-05 23:12:00,80.1,78.3,30.04,ESE,103,0.0,6.0,94,0.00,,,0.01,0.0,meteohub,2013-06-06 03:12:00,
2013-06-05 23:17:00,80.1,78.3,30.04,ESE,104,0.0,0.0,94,0.00,,,0.01,0.0,meteohub,2013-06-06 03:17:00,
2013-06-05 23:22:00,79.9,78.1,30.04,East,83,0.0,4.0,94,0.00,,,0.01,0.0,meteohub,2013-06-06 03:22:00,
2013-06-05 23:27:00,79.9,78.3,30.04,ESE,109,0.0,7.0,95,0.00,,,0.01,0.0,meteohub,2013-06-06 03:27:00,
2013-06-05 23:32:00,79.9,78.3,30.04,ESE,107,0.0,7.0,95,0.00,,,0.01,0.0,meteohub,2013-06-06 03:32:00,
2013-06-05 23:37:00,79.9,78.3,30.04,ESE,102,0.0,6.0,95,0.00,,,0.01,0.0,meteohub,2013-06-06 03:37:00,
2013-06-05 23:42:00,79.9,78.3,30.04,East,97,3.0,6.0,95,0.00,,,0.01,0.0,meteohub,2013-06-06 03:42:00,
2013-06-05 23:47:00,79.9,78.3,30.03,ENE,71,0.0,4.0,95,0.00,,,0.01,0.0,meteohub,2013-06-06 03:47:00,
2013-06-05 23:52:00,79.9,78.3,30.03,ESE,102,3.0,7.0,95,0.00,,,0.01,0.0,meteohub,2013-06-06 03:52:00,
2013-06-05 23:57:00,79.9,78.3,30.03,East,90,0.0,7.0,95,0.00,,,0.01,0.0,meteohub,2013-06-06 03:57:00,